createdAt,value
2019-05-02T00:00:00.913Z,27.20
2019-05-02T00:01:00.872Z,27.90
2019-05-02T00:02:00.854Z,29.30
2019-05-02T00:03:04.527Z,28.00
2019-05-02T00:04:00.825Z,28.90
2019-05-02T00:05:00.819Z,29.10
2019-05-02T00:06:02.890Z,30.10
2019-05-02T00:07:01.803Z,27.70
2019-05-02T00:08:00.818Z,27.10
2019-05-02T00:09:03.978Z,27.30
2019-05-02T00:10:01.775Z,28.80
2019-05-02T00:11:00.766Z,27.30
2019-05-02T00:12:00.743Z,25.20
2019-05-02T00:13:00.756Z,25.80
2019-05-02T00:14:00.739Z,26.60
2019-05-02T00:15:02.028Z,26.40
2019-05-02T00:16:00.734Z,26.80
2019-05-02T00:17:00.691Z,28.70
2019-05-02T00:18:01.360Z,27.10
2019-05-02T00:19:00.668Z,28.30
2019-05-02T00:20:00.680Z,28.90
2019-05-02T00:21:01.434Z,29.60
2019-05-02T00:22:00.629Z,28.70
2019-05-02T00:23:00.630Z,30.70
2019-05-02T00:24:03.071Z,29.40
2019-05-02T00:25:00.596Z,26.40
2019-05-02T00:26:00.624Z,29.00
2019-05-02T00:27:01.457Z,26.70
2019-05-02T00:28:00.563Z,29.90
2019-05-02T00:29:00.561Z,30.30
2019-05-02T00:30:00.560Z,28.60
2019-05-02T00:31:00.540Z,26.80
2019-05-02T00:32:00.540Z,29.70
2019-05-02T00:33:00.570Z,29.10
2019-05-02T00:34:00.503Z,28.90
2019-05-02T00:35:00.486Z,28.70
2019-05-02T00:36:00.477Z,27.60
2019-05-02T00:37:00.470Z,29.20
2019-05-02T00:38:02.378Z,29.10
2019-05-02T00:39:00.455Z,29.80
2019-05-02T00:40:00.440Z,27.30
2019-05-02T00:41:02.168Z,27.80
2019-05-02T00:42:12.115Z,27.40
2019-05-02T00:43:01.440Z,29.90
2019-05-02T00:44:00.400Z,27.80
2019-05-02T00:45:00.379Z,28.50
2019-05-02T00:46:00.971Z,26.70
2019-05-02T00:47:00.372Z,29.00
2019-05-02T00:48:00.369Z,27.70
2019-05-02T00:49:01.878Z,27.30
2019-05-02T00:50:00.356Z,26.90
2019-05-02T00:51:00.310Z,28.40
2019-05-02T00:52:01.277Z,28.30
2019-05-02T00:53:00.292Z,27.00
2019-05-02T00:54:00.298Z,27.10
2019-05-02T00:55:00.274Z,26.20
2019-05-02T00:56:00.258Z,28.10
2019-05-02T00:57:00.266Z,25.30
2019-05-02T00:58:00.295Z,24.20
2019-05-02T00:59:02.430Z,27.30
2019-05-02T01:00:01.232Z,27.20
2019-05-02T01:01:00.204Z,25.50
2019-05-02T01:02:05.225Z,24.90
2019-05-02T01:03:01.196Z,25.20
2019-05-02T01:04:00.200Z,27.50
2019-05-02T01:05:03.217Z,29.40
2019-05-02T01:06:00.147Z,26.80
2019-05-02T01:07:00.142Z,25.60
2019-05-02T01:08:01.116Z,27.00
2019-05-02T01:09:00.154Z,26.00
2019-05-02T01:10:00.130Z,27.90
2019-05-02T01:11:00.125Z,27.30
2019-05-02T01:12:03.333Z,25.20
2019-05-02T01:13:01.096Z,27.70
2019-05-02T01:14:00.085Z,31.80
2019-05-02T01:15:03.306Z,29.70
2019-05-02T01:16:01.038Z,29.30
2019-05-02T01:17:00.028Z,30.90
2019-05-02T01:18:01.050Z,29.60
2019-05-02T01:19:01.015Z,31.00
2019-05-02T01:20:00.022Z,30.60
2019-05-02T01:21:02.814Z,28.60
2019-05-02T01:21:59.976Z,31.20
2019-05-02T01:22:59.987Z,33.10
2019-05-02T01:24:03.121Z,28.20
2019-05-02T01:24:59.945Z,34.80
2019-05-02T01:25:59.929Z,30.40
2019-05-02T01:27:04.305Z,30.90
2019-05-02T01:27:59.962Z,32.70
2019-05-02T01:28:59.897Z,32.70
2019-05-02T01:30:01.708Z,32.90
2019-05-02T01:31:00.877Z,32.30
2019-05-02T01:31:59.878Z,32.20
2019-05-02T01:33:01.296Z,31.30
2019-05-02T01:34:00.872Z,30.70
2019-05-02T01:34:59.831Z,30.20
2019-05-02T01:36:01.687Z,34.90
2019-05-02T01:37:00.816Z,32.00
2019-05-02T01:37:59.798Z,31.90
2019-05-02T01:39:02.992Z,33.60
2019-05-02T01:40:00.789Z,31.00
2019-05-02T01:40:59.777Z,31.70
2019-05-02T01:42:03.725Z,31.60
2019-05-02T01:42:59.759Z,30.00
2019-05-02T01:44:01.510Z,30.80
2019-05-02T01:44:59.758Z,29.70
2019-05-02T01:45:59.714Z,30.90
2019-05-02T01:47:00.048Z,29.40
2019-05-02T01:47:59.703Z,30.40
2019-05-02T01:48:59.713Z,33.00
2019-05-02T01:49:59.705Z,30.70
2019-05-02T01:51:04.192Z,30.60
2019-05-02T01:52:00.681Z,33.90
2019-05-02T01:53:00.192Z,31.50
2019-05-02T01:53:59.668Z,30.80
2019-05-02T01:54:59.625Z,37.30
2019-05-02T01:55:59.598Z,33.80
2019-05-02T01:56:59.586Z,34.60
2019-05-02T01:57:59.582Z,33.40
2019-05-02T01:58:59.598Z,32.40
2019-05-02T01:59:59.585Z,31.50
2019-05-02T02:00:59.544Z,29.90
2019-05-02T02:01:59.540Z,29.90
2019-05-02T02:02:59.524Z,31.90
2019-05-02T02:03:59.550Z,33.10
2019-05-02T02:04:59.545Z,32.50
2019-05-02T02:06:02.954Z,32.60
2019-05-02T02:07:00.483Z,34.10
2019-05-02T02:07:59.466Z,33.50
2019-05-02T02:09:03.411Z,34.00
2019-05-02T02:10:00.461Z,35.90
2019-05-02T02:10:59.433Z,30.10
2019-05-02T02:11:59.438Z,29.80
2019-05-02T02:13:04.777Z,29.70
2019-05-02T02:14:00.399Z,29.90
2019-05-02T02:14:59.408Z,32.60
2019-05-02T02:16:00.302Z,29.50
2019-05-02T02:16:59.370Z,30.70
2019-05-02T02:17:59.363Z,30.50
2019-05-02T02:19:04.129Z,34.20
2019-05-02T02:20:00.349Z,33.40
2019-05-02T02:20:59.325Z,33.10
2019-05-02T02:22:02.671Z,31.40
2019-05-02T02:23:00.308Z,32.00
2019-05-02T02:23:59.302Z,34.50
2019-05-02T02:25:00.952Z,34.00
2019-05-02T02:25:59.283Z,34.20
2019-05-02T02:26:59.261Z,34.60
2019-05-02T02:27:59.822Z,32.00
2019-05-02T02:29:03.116Z,33.60
2019-05-02T02:30:00.241Z,34.60
2019-05-02T02:31:04.848Z,32.20
2019-05-02T02:32:00.215Z,35.10
2019-05-02T02:33:06.913Z,34.10
2019-05-02T02:34:00.198Z,33.10
2019-05-02T02:35:03.575Z,34.50
2019-05-02T02:36:00.191Z,34.00
2019-05-02T02:36:59.152Z,32.80
2019-05-02T02:37:59.136Z,36.60
2019-05-02T02:38:59.125Z,38.00
2019-05-02T02:39:59.117Z,34.50
2019-05-02T02:40:59.150Z,34.90
2019-05-02T02:41:59.166Z,33.30
2019-05-02T02:43:10.114Z,36.50
2019-05-02T02:44:00.699Z,35.90
2019-05-02T02:44:59.070Z,35.80
2019-05-02T02:45:59.781Z,34.40
2019-05-02T02:46:59.042Z,35.00
2019-05-02T02:47:59.997Z,34.00
2019-05-02T02:48:59.011Z,37.80
2019-05-02T02:50:02.510Z,36.80
2019-05-02T02:50:59.007Z,37.60
2019-05-02T02:52:04.846Z,40.60
2019-05-02T02:52:59.971Z,36.80
2019-05-02T02:54:03.853Z,34.90
2019-05-02T02:54:59.947Z,33.80
2019-05-02T02:56:01.714Z,35.40
2019-05-02T02:56:58.946Z,34.10
2019-05-02T02:58:04.761Z,32.30
2019-05-02T02:58:59.902Z,34.30
2019-05-02T03:00:06.407Z,35.20
2019-05-02T03:00:59.901Z,34.30
2019-05-02T03:02:08.724Z,32.50
2019-05-02T03:02:59.854Z,36.30
2019-05-02T03:04:01.942Z,34.20
2019-05-02T03:04:59.834Z,34.40
2019-05-02T03:06:05.262Z,34.60
2019-05-02T03:06:59.845Z,34.70
2019-05-02T03:07:59.604Z,34.00
2019-05-02T03:08:59.797Z,32.20
2019-05-02T03:09:59.496Z,32.90
2019-05-02T03:10:59.767Z,33.30
2019-05-02T03:12:02.300Z,34.20
2019-05-02T03:12:59.753Z,33.30
2019-05-02T03:14:06.153Z,33.10
2019-05-02T03:14:59.723Z,30.30
2019-05-02T03:16:00.459Z,31.70
2019-05-02T03:16:59.716Z,31.70
2019-05-02T03:17:59.936Z,30.60
2019-05-02T03:18:58.711Z,31.80
2019-05-02T03:20:01.078Z,30.20
2019-05-02T03:20:58.656Z,32.60
2019-05-02T03:22:04.137Z,29.80
2019-05-02T03:22:59.633Z,30.80
2019-05-02T03:24:03.467Z,31.10
2019-05-02T03:24:59.611Z,30.00
2019-05-02T03:25:58.598Z,30.80
2019-05-02T03:26:58.846Z,35.00
2019-05-02T03:27:58.580Z,27.80
2019-05-02T03:29:00.796Z,32.40
2019-05-02T03:29:58.601Z,33.00
2019-05-02T03:30:58.555Z,29.30
2019-05-02T03:32:13.353Z,31.40
2019-05-02T03:33:09.762Z,33.10
2019-05-02T03:34:01.071Z,32.10
2019-05-02T03:34:58.555Z,30.40
2019-05-02T03:35:58.489Z,29.00
2019-05-02T03:37:03.486Z,31.50
2019-05-02T03:37:59.491Z,31.90
2019-05-02T03:38:58.466Z,28.50
2019-05-02T03:40:00.741Z,27.80
2019-05-02T03:40:58.451Z,30.50
2019-05-02T03:42:03.092Z,31.70
2019-05-02T03:42:58.428Z,29.70
2019-05-02T03:44:10.435Z,33.10
2019-05-02T03:45:04.299Z,27.80
2019-05-02T03:45:59.378Z,29.50
2019-05-02T03:47:02.162Z,31.10
2019-05-02T03:47:59.388Z,32.50
2019-05-02T03:49:06.105Z,30.90
2019-05-02T03:49:59.370Z,30.20
2019-05-02T03:50:58.335Z,31.30
2019-05-02T03:52:02.873Z,30.70
2019-05-02T03:52:59.317Z,30.70
2019-05-02T03:54:06.473Z,31.20
2019-05-02T03:54:59.276Z,31.40
2019-05-02T03:55:58.269Z,31.90
2019-05-02T03:56:58.258Z,30.80
2019-05-02T03:57:58.280Z,31.20
2019-05-02T03:58:58.532Z,32.20
2019-05-02T03:59:58.230Z,33.50
2019-05-02T04:01:01.740Z,33.00
2019-05-02T04:01:59.204Z,31.60
2019-05-02T04:03:00.332Z,32.00
2019-05-02T04:03:58.180Z,32.90
2019-05-02T04:05:00.532Z,31.90
2019-05-02T04:05:58.167Z,31.90
2019-05-02T04:07:00.962Z,33.10
2019-05-02T04:07:58.157Z,30.20
2019-05-02T04:08:59.764Z,35.70
2019-05-02T04:09:58.124Z,32.00
2019-05-02T04:10:59.521Z,31.90
2019-05-02T04:11:58.090Z,34.70
2019-05-02T04:12:59.844Z,32.40
2019-05-02T04:13:58.130Z,32.50
2019-05-02T04:14:58.067Z,34.00
2019-05-02T04:15:58.049Z,33.10
2019-05-02T04:16:58.051Z,35.90
2019-05-02T04:17:58.040Z,34.20
2019-05-02T04:18:58.429Z,37.80
2019-05-02T04:19:58.010Z,33.10
2019-05-02T04:20:58.026Z,32.30
2019-05-02T04:22:01.732Z,34.00
2019-05-02T04:22:58.976Z,32.30
2019-05-02T04:24:07.489Z,33.70
2019-05-02T04:24:58.946Z,36.90
2019-05-02T04:25:57.952Z,32.20
2019-05-02T04:26:57.939Z,34.40
2019-05-02T04:27:57.916Z,36.80
2019-05-02T04:28:57.945Z,36.20
2019-05-02T04:30:09.811Z,35.10
2019-05-02T04:30:58.898Z,32.40
2019-05-02T04:31:57.872Z,34.40
2019-05-02T04:32:57.967Z,33.50
2019-05-02T04:33:57.885Z,32.20
2019-05-02T04:34:58.087Z,31.70
2019-05-02T04:35:59.598Z,34.30
2019-05-02T04:37:01.333Z,38.80
2019-05-02T04:38:01.614Z,36.50
2019-05-02T04:38:59.643Z,36.10
2019-05-02T04:39:59.128Z,35.30
2019-05-02T04:40:59.263Z,35.80
2019-05-02T04:41:58.619Z,38.00
2019-05-02T04:43:05.487Z,38.10
2019-05-02T04:44:01.400Z,37.00
2019-05-02T04:45:14.236Z,37.30
2019-05-02T04:46:00.124Z,37.00
2019-05-02T04:47:02.621Z,35.90
2019-05-02T04:48:03.799Z,37.60
2019-05-02T04:48:58.972Z,37.80
2019-05-02T04:49:58.574Z,33.90
2019-05-02T04:50:59.416Z,34.40
2019-05-02T04:52:06.110Z,33.90
2019-05-02T04:52:59.305Z,35.30
2019-05-02T04:53:58.823Z,37.50
2019-05-02T04:55:08.789Z,38.00
2019-05-02T04:56:04.468Z,36.20
2019-05-02T04:57:02.213Z,38.10
2019-05-02T04:57:58.773Z,36.50
2019-05-02T04:59:01.360Z,35.10
2019-05-02T05:00:06.280Z,38.00
2019-05-02T05:01:01.881Z,34.70
2019-05-02T05:02:01.141Z,37.10
2019-05-02T05:02:58.087Z,32.50
2019-05-02T05:04:02.851Z,33.80
2019-05-02T05:04:58.524Z,35.20
2019-05-02T05:06:01.572Z,35.90
2019-05-02T05:07:01.222Z,36.60
2019-05-02T05:07:58.629Z,32.60
2019-05-02T05:08:58.439Z,32.20
2019-05-02T05:10:02.981Z,35.60
2019-05-02T05:10:58.454Z,35.10
2019-05-02T05:11:59.075Z,34.20
2019-05-02T05:12:57.416Z,34.90
2019-05-02T05:14:00.245Z,34.90
2019-05-02T05:14:57.837Z,35.60
2019-05-02T05:15:57.472Z,36.90
2019-05-02T05:16:57.977Z,34.60
2019-05-02T05:17:58.204Z,33.00
2019-05-02T05:18:57.834Z,36.30
2019-05-02T05:20:00.038Z,36.70
2019-05-02T05:20:57.783Z,34.60
2019-05-02T05:22:04.333Z,37.60
2019-05-02T05:22:58.321Z,35.30
2019-05-02T05:24:01.159Z,34.70
2019-05-02T05:24:58.263Z,38.60
2019-05-02T05:26:03.415Z,36.40
2019-05-02T05:27:00.111Z,39.00
2019-05-02T05:28:01.413Z,38.80
2019-05-02T05:28:58.463Z,36.50
2019-05-02T05:29:59.456Z,38.70
2019-05-02T05:30:58.394Z,40.20
2019-05-02T05:32:05.255Z,40.50
2019-05-02T05:32:58.399Z,40.90
2019-05-02T05:33:57.949Z,38.40
2019-05-02T05:34:57.984Z,40.80
2019-05-02T05:35:57.842Z,40.90
2019-05-02T05:36:58.331Z,40.30
2019-05-02T05:37:57.371Z,40.10
2019-05-02T05:38:58.289Z,41.70
2019-05-02T05:39:58.042Z,43.00
2019-05-02T05:40:58.096Z,45.20
2019-05-02T05:41:57.869Z,42.50
2019-05-02T05:42:57.385Z,39.20
2019-05-02T05:43:57.499Z,41.10
2019-05-02T05:44:58.373Z,43.30
2019-05-02T05:46:09.255Z,38.10
2019-05-02T05:46:58.278Z,40.80
2019-05-02T05:48:00.962Z,43.20
2019-05-02T05:48:58.246Z,42.90
2019-05-02T05:50:01.009Z,42.50
2019-05-02T05:50:58.034Z,44.30
2019-05-02T05:52:02.306Z,41.40
2019-05-02T05:52:59.526Z,45.70
2019-05-02T05:54:02.747Z,44.00
2019-05-02T05:54:58.029Z,46.50
2019-05-02T05:56:01.001Z,51.00
2019-05-02T05:56:57.953Z,50.80
2019-05-02T05:58:03.197Z,59.90
2019-05-02T05:58:59.248Z,63.10
2019-05-02T05:59:58.453Z,59.60
2019-05-02T06:00:58.386Z,59.50
2019-05-02T06:01:57.956Z,62.30
2019-05-02T06:03:10.129Z,60.90
2019-05-02T06:03:58.217Z,62.20
2019-05-02T06:05:02.108Z,62.30
2019-05-02T06:05:58.073Z,63.70
2019-05-02T06:06:59.563Z,64.10
2019-05-02T06:07:57.817Z,60.50
2019-05-02T06:08:56.794Z,63.20
2019-05-02T06:09:56.785Z,63.20
2019-05-02T06:10:56.782Z,66.60
2019-05-02T06:11:56.782Z,62.60
2019-05-02T06:12:56.757Z,66.20
2019-05-02T06:13:56.739Z,70.30
2019-05-02T06:15:01.660Z,74.40
2019-05-02T06:16:02.551Z,67.60
2019-05-02T06:16:57.734Z,71.70
2019-05-02T06:17:59.953Z,73.80
2019-05-02T06:18:57.692Z,70.20
2019-05-02T06:19:56.675Z,73.60
2019-05-02T06:20:58.418Z,73.30
2019-05-02T06:21:56.731Z,77.60
2019-05-02T06:23:00.085Z,77.60
2019-05-02T06:23:56.638Z,76.70
2019-05-02T06:24:56.623Z,74.00
2019-05-02T06:25:56.610Z,74.60
2019-05-02T06:26:56.632Z,76.00
2019-05-02T06:28:00.250Z,74.70
2019-05-02T06:28:57.592Z,84.60
2019-05-02T06:29:57.351Z,82.50
2019-05-02T06:30:56.564Z,83.30
2019-05-02T06:31:56.545Z,84.60
2019-05-02T06:32:56.654Z,81.40
2019-05-02T06:33:56.528Z,84.00
2019-05-02T06:34:56.524Z,78.60
2019-05-02T06:36:00.891Z,79.30
2019-05-02T06:36:57.491Z,81.40
2019-05-02T06:37:56.494Z,81.40
2019-05-02T06:38:57.803Z,81.40
2019-05-02T06:39:56.465Z,78.90
2019-05-02T06:40:56.499Z,83.70
2019-05-02T06:41:57.400Z,85.20
2019-05-02T06:42:56.457Z,82.00
2019-05-02T06:43:56.417Z,82.20
2019-05-02T06:44:59.777Z,81.50
2019-05-02T06:45:56.393Z,83.20
2019-05-02T06:46:59.225Z,80.70
2019-05-02T06:47:57.398Z,89.00
2019-05-02T06:48:56.355Z,84.20
2019-05-02T06:50:01.081Z,83.50
2019-05-02T06:50:57.331Z,79.30
2019-05-02T06:51:57.669Z,81.60
2019-05-02T06:52:56.377Z,83.60
2019-05-02T06:53:56.315Z,82.20
2019-05-02T06:54:58.043Z,84.90
2019-05-02T06:55:56.281Z,86.00
2019-05-02T06:56:56.264Z,88.40
2019-05-02T06:57:57.079Z,86.90
2019-05-02T06:58:57.264Z,80.90
2019-05-02T06:59:56.516Z,81.80
2019-05-02T07:00:58.804Z,87.30
2019-05-02T07:01:57.459Z,82.80
2019-05-02T07:02:56.206Z,81.40
2019-05-02T07:03:56.211Z,80.40
2019-05-02T07:04:56.179Z,79.80
2019-05-02T07:05:58.801Z,83.30
2019-05-02T07:06:59.354Z,84.60
2019-05-02T07:07:56.193Z,82.20
2019-05-02T07:08:59.055Z,79.10
2019-05-02T07:09:56.359Z,78.50
2019-05-02T07:11:01.121Z,75.70
2019-05-02T07:12:01.055Z,80.30
2019-05-02T07:13:09.845Z,81.40
2019-05-02T07:13:57.092Z,80.70
2019-05-02T07:15:01.415Z,79.90
2019-05-02T07:15:57.062Z,78.00
2019-05-02T07:16:56.494Z,78.60
2019-05-02T07:17:56.034Z,82.10
2019-05-02T07:18:56.056Z,77.50
2019-05-02T07:19:58.810Z,82.30
2019-05-02T07:20:57.031Z,80.90
2019-05-02T07:21:58.699Z,79.20
2019-05-02T07:22:55.983Z,81.40
2019-05-02T07:23:55.989Z,82.40
2019-05-02T07:24:55.957Z,82.30
2019-05-02T07:25:55.952Z,86.30
2019-05-02T07:26:56.941Z,83.60
2019-05-02T07:27:55.947Z,78.50
2019-05-02T07:28:55.925Z,82.10
2019-05-02T07:29:57.770Z,83.10
2019-05-02T07:30:55.891Z,83.10
2019-05-02T07:31:55.887Z,80.50
2019-05-02T07:32:56.357Z,85.90
2019-05-02T07:33:55.889Z,83.30
2019-05-02T07:34:55.858Z,82.40
2019-05-02T07:36:00.068Z,83.90
2019-05-02T07:36:55.830Z,81.80
2019-05-02T07:37:55.809Z,86.90
2019-05-02T07:38:57.678Z,83.40
2019-05-02T07:39:56.794Z,82.50
2019-05-02T07:40:55.779Z,82.60
2019-05-02T07:41:55.924Z,80.90
2019-05-02T07:42:55.760Z,78.80
2019-05-02T07:43:56.323Z,81.80
2019-05-02T07:44:55.748Z,82.80
2019-05-02T07:45:55.733Z,79.10
2019-05-02T07:46:57.008Z,81.10
2019-05-02T07:47:56.709Z,74.60
2019-05-02T07:48:56.651Z,79.70
2019-05-02T07:49:55.733Z,83.30
2019-05-02T07:50:56.218Z,77.60
2019-05-02T07:51:57.571Z,78.50
2019-05-02T07:52:55.652Z,76.80
2019-05-02T07:53:56.023Z,79.20
2019-05-02T07:54:56.119Z,75.00
2019-05-02T07:55:56.611Z,82.70
2019-05-02T07:56:55.607Z,77.10
2019-05-02T07:57:55.600Z,78.80
2019-05-02T07:58:55.589Z,77.20
2019-05-02T08:00:00.477Z,76.50
2019-05-02T08:00:56.567Z,78.30
2019-05-02T08:01:55.548Z,75.20
2019-05-02T08:02:57.935Z,74.70
2019-05-02T08:03:55.564Z,78.50
2019-05-02T08:04:55.514Z,80.00
2019-05-02T08:05:58.586Z,73.60
2019-05-02T08:06:55.514Z,78.10
2019-05-02T08:07:55.485Z,72.80
2019-05-02T08:08:55.509Z,74.70
2019-05-02T08:09:55.477Z,74.40
2019-05-02T08:11:01.762Z,77.50
2019-05-02T08:11:56.444Z,76.40
2019-05-02T08:12:55.429Z,73.40
2019-05-02T08:14:00.120Z,80.10
2019-05-02T08:14:56.422Z,71.40
2019-05-02T08:15:55.420Z,71.50
2019-05-02T08:17:05.364Z,71.10
2019-05-02T08:17:56.369Z,72.30
2019-05-02T08:18:55.356Z,71.70
2019-05-02T08:19:55.348Z,74.70
2019-05-02T08:20:56.081Z,73.40
2019-05-02T08:21:55.335Z,75.40
2019-05-02T08:22:55.322Z,72.60
2019-05-02T08:23:57.119Z,74.50
2019-05-02T08:24:56.345Z,72.90
2019-05-02T08:25:55.320Z,74.00
2019-05-02T08:26:58.275Z,76.70
2019-05-02T08:27:55.260Z,74.30
2019-05-02T08:28:55.258Z,72.00
2019-05-02T08:29:55.248Z,75.70
2019-05-02T08:30:55.261Z,73.20
2019-05-02T08:31:55.249Z,73.30
2019-05-02T08:32:55.207Z,71.90
2019-05-02T08:33:55.195Z,73.10
2019-05-02T08:34:55.186Z,72.50
2019-05-02T08:35:55.196Z,68.30
2019-05-02T08:36:58.806Z,65.40
2019-05-02T08:37:56.394Z,68.20
2019-05-02T08:38:55.426Z,66.50
2019-05-02T08:39:55.123Z,65.70
2019-05-02T08:40:55.132Z,66.80
2019-05-02T08:41:56.327Z,68.00
2019-05-02T08:42:55.096Z,67.60
2019-05-02T08:43:55.077Z,64.40
2019-05-02T08:44:56.300Z,68.10
2019-05-02T08:45:56.072Z,72.20
2019-05-02T08:46:55.065Z,72.00
2019-05-02T08:47:55.040Z,69.80
2019-05-02T08:48:55.041Z,67.40
2019-05-02T08:49:56.608Z,67.40
2019-05-02T08:50:55.017Z,65.50
2019-05-02T08:51:54.991Z,65.40
2019-05-02T08:52:54.989Z,66.70
2019-05-02T08:53:56.716Z,71.00
2019-05-02T08:54:54.970Z,66.80
2019-05-02T08:55:55.002Z,66.30
2019-05-02T08:56:58.928Z,67.50
2019-05-02T08:57:55.928Z,65.70
2019-05-02T08:58:54.919Z,65.40
2019-05-02T08:59:55.433Z,67.40
2019-05-02T09:00:54.912Z,69.00
2019-05-02T09:01:54.910Z,69.00
2019-05-02T09:02:56.993Z,65.00
2019-05-02T09:03:56.996Z,64.50
2019-05-02T09:04:58.692Z,71.50
2019-05-02T09:06:05.281Z,70.40
2019-05-02T09:06:58.702Z,65.80
2019-05-02T09:07:54.820Z,71.70
2019-05-02T09:08:54.810Z,64.50
2019-05-02T09:09:55.612Z,67.00
2019-05-02T09:10:54.805Z,62.80
2019-05-02T09:12:03.319Z,65.40
2019-05-02T09:12:55.762Z,66.10
2019-05-02T09:13:54.750Z,66.10
2019-05-02T09:14:54.752Z,66.40
2019-05-02T09:15:54.847Z,64.60
2019-05-02T09:16:54.722Z,67.10
2019-05-02T09:17:56.479Z,68.10
2019-05-02T09:18:54.738Z,65.40
2019-05-02T09:20:02.454Z,65.00
2019-05-02T09:20:56.677Z,62.40
2019-05-02T09:21:54.750Z,64.70
2019-05-02T09:22:56.075Z,62.40
2019-05-02T09:23:54.639Z,65.10
2019-05-02T09:24:54.642Z,64.20
2019-05-02T09:25:54.632Z,64.00
2019-05-02T09:26:54.640Z,64.80
2019-05-02T09:27:54.615Z,62.00
2019-05-02T09:28:56.271Z,65.00
2019-05-02T09:29:55.626Z,62.00
2019-05-02T09:30:57.251Z,61.20
2019-05-02T09:31:55.553Z,63.00
2019-05-02T09:32:57.150Z,64.20
2019-05-02T09:33:55.802Z,59.10
2019-05-02T09:34:56.725Z,59.10
2019-05-02T09:35:55.512Z,60.30
2019-05-02T09:36:54.533Z,63.10
2019-05-02T09:37:54.517Z,63.10
2019-05-02T09:38:57.620Z,60.70
2019-05-02T09:39:54.476Z,61.60
2019-05-02T09:40:56.158Z,64.30
2019-05-02T09:41:54.446Z,59.30
2019-05-02T09:42:58.530Z,62.50
2019-05-02T09:43:55.422Z,63.40
2019-05-02T09:44:57.022Z,62.60
2019-05-02T09:45:54.426Z,60.50
2019-05-02T09:46:57.018Z,59.90
2019-05-02T09:48:04.065Z,58.10
2019-05-02T09:48:57.065Z,57.70
2019-05-02T09:49:55.375Z,55.60
2019-05-02T09:50:54.352Z,57.30
2019-05-02T09:51:59.306Z,55.50
2019-05-02T09:52:55.342Z,56.20
2019-05-02T09:53:57.026Z,59.90
2019-05-02T09:54:55.322Z,57.50
2019-05-02T09:55:57.719Z,58.70
2019-05-02T09:56:54.307Z,59.50
2019-05-02T09:57:54.286Z,56.60
2019-05-02T09:59:01.960Z,57.40
2019-05-02T09:59:55.827Z,55.00
2019-05-02T10:00:54.255Z,53.80
2019-05-02T10:01:54.225Z,57.50
2019-05-02T10:02:54.272Z,57.80
2019-05-02T10:03:54.234Z,53.80
2019-05-02T10:04:54.207Z,53.20
2019-05-02T10:05:54.197Z,55.30
2019-05-02T10:06:54.296Z,52.10
2019-05-02T10:07:57.419Z,49.40
2019-05-02T10:08:55.166Z,48.80
2019-05-02T10:09:57.626Z,49.70
2019-05-02T10:10:55.135Z,51.00
2019-05-02T10:11:54.119Z,52.20
2019-05-02T10:12:54.109Z,54.40
2019-05-02T10:13:55.486Z,53.00
2019-05-02T10:14:54.130Z,54.20
2019-05-02T10:15:54.078Z,49.30
2019-05-02T10:16:57.558Z,50.60
2019-05-02T10:18:07.927Z,49.20
2019-05-02T10:18:55.059Z,52.20
2019-05-02T10:19:56.563Z,48.40
2019-05-02T10:20:54.032Z,48.10
2019-05-02T10:21:56.137Z,51.80
2019-05-02T10:22:54.011Z,48.40
2019-05-02T10:23:59.572Z,49.80
2019-05-02T10:24:54.978Z,48.90
2019-05-02T10:25:53.974Z,49.50
2019-05-02T10:26:55.143Z,51.10
2019-05-02T10:27:54.947Z,49.20
2019-05-02T10:28:54.000Z,49.00
2019-05-02T10:29:56.946Z,44.30
2019-05-02T10:30:56.679Z,43.80
2019-05-02T10:31:53.939Z,48.00
2019-05-02T10:32:57.303Z,44.80
2019-05-02T10:33:53.893Z,46.70
2019-05-02T10:34:56.756Z,47.40
2019-05-02T10:35:53.852Z,47.50
2019-05-02T10:36:58.611Z,46.90
2019-05-02T10:37:54.832Z,46.00
2019-05-02T10:38:59.024Z,46.30
2019-05-02T10:39:55.919Z,47.20
2019-05-02T10:41:01.311Z,46.90
2019-05-02T10:41:57.499Z,48.20
2019-05-02T10:42:53.778Z,46.10
2019-05-02T10:43:56.660Z,39.50
2019-05-02T10:44:54.757Z,45.50
2019-05-02T10:45:56.492Z,41.80
2019-05-02T10:46:53.738Z,40.80
2019-05-02T10:47:53.729Z,43.60
2019-05-02T10:48:53.734Z,40.40
2019-05-02T10:49:53.727Z,40.30
2019-05-02T10:50:53.696Z,41.90
2019-05-02T10:51:53.854Z,42.50
2019-05-02T10:52:53.682Z,41.10
2019-05-02T10:53:56.358Z,41.80
2019-05-02T10:54:53.680Z,40.20
2019-05-02T10:55:53.661Z,40.20
2019-05-02T10:56:53.647Z,40.30
2019-05-02T10:57:53.621Z,42.60
2019-05-02T10:58:53.604Z,42.60
2019-05-02T10:59:56.172Z,41.60
2019-05-02T11:00:53.595Z,42.50
2019-05-02T11:01:53.583Z,46.10
2019-05-02T11:02:53.562Z,43.50
2019-05-02T11:03:53.570Z,43.50
2019-05-02T11:04:53.553Z,41.00
2019-05-02T11:05:57.868Z,46.40
2019-05-02T11:06:56.677Z,44.50
2019-05-02T11:07:56.910Z,44.20
2019-05-02T11:08:54.513Z,41.60
2019-05-02T11:09:57.229Z,44.10
2019-05-02T11:10:54.473Z,41.30
2019-05-02T11:11:53.468Z,41.70
2019-05-02T11:12:56.115Z,43.90
2019-05-02T11:14:00.722Z,40.70
2019-05-02T11:14:54.462Z,40.80
2019-05-02T11:15:53.431Z,41.90
2019-05-02T11:16:53.407Z,40.00
2019-05-02T11:17:53.450Z,42.30
2019-05-02T11:18:53.394Z,38.80
2019-05-02T11:19:53.374Z,41.30
2019-05-02T11:20:53.376Z,40.60
2019-05-02T11:21:58.206Z,39.80
2019-05-02T11:22:54.604Z,37.90
2019-05-02T11:23:53.414Z,38.90
2019-05-02T11:24:53.328Z,37.70
2019-05-02T11:25:53.322Z,41.60
2019-05-02T11:26:53.336Z,39.00
2019-05-02T11:27:57.346Z,38.20
2019-05-02T11:28:54.270Z,40.70
2019-05-02T11:29:53.266Z,38.50
2019-05-02T11:30:56.934Z,38.80
2019-05-02T11:31:54.243Z,38.00
2019-05-02T11:32:53.231Z,36.10
2019-05-02T11:33:53.293Z,39.00
2019-05-02T11:34:53.210Z,40.70
2019-05-02T11:35:53.623Z,38.60
2019-05-02T11:36:53.184Z,38.00
2019-05-02T11:37:53.181Z,39.60
2019-05-02T11:39:01.111Z,39.00
2019-05-02T11:40:00.255Z,38.00
2019-05-02T11:40:54.157Z,41.10
2019-05-02T11:41:53.158Z,38.90
2019-05-02T11:42:57.307Z,37.80
2019-05-02T11:43:55.876Z,34.60
2019-05-02T11:44:53.101Z,35.80
2019-05-02T11:45:55.884Z,36.20
2019-05-02T11:46:54.083Z,36.10
2019-05-02T11:47:55.941Z,37.70
2019-05-02T11:48:58.076Z,35.50
2019-05-02T11:49:56.041Z,33.90
2019-05-02T11:50:53.067Z,37.40
2019-05-02T11:51:57.124Z,35.60
2019-05-02T11:52:53.011Z,32.90
2019-05-02T11:53:53.009Z,30.30
2019-05-02T11:54:53.002Z,30.50
2019-05-02T11:55:53.310Z,31.90
2019-05-02T11:56:53.679Z,32.10
2019-05-02T11:57:52.983Z,34.00
2019-05-02T11:58:53.052Z,34.10
2019-05-02T11:59:52.932Z,34.50
2019-05-02T12:00:52.942Z,36.10
2019-05-02T12:01:59.751Z,35.30
2019-05-02T12:02:57.950Z,35.80
2019-05-02T12:03:52.887Z,37.00
2019-05-02T12:04:55.521Z,35.40
2019-05-02T12:05:52.906Z,35.40
2019-05-02T12:07:00.911Z,33.50
2019-05-02T12:07:53.856Z,36.80
2019-05-02T12:08:52.868Z,32.70
2019-05-02T12:09:57.097Z,36.10
2019-05-02T12:10:52.870Z,33.60
2019-05-02T12:11:56.634Z,32.60
2019-05-02T12:12:52.789Z,37.50
2019-05-02T12:13:56.889Z,34.80
2019-05-02T12:14:52.874Z,34.70
2019-05-02T12:15:52.754Z,38.30
2019-05-02T12:16:52.887Z,35.30
2019-05-02T12:17:52.744Z,38.20
2019-05-02T12:18:53.732Z,36.80
2019-05-02T12:19:53.723Z,36.80
2019-05-02T12:20:52.765Z,39.60
2019-05-02T12:21:52.967Z,37.00
2019-05-02T12:22:52.904Z,36.90
2019-05-02T12:23:53.021Z,36.30
2019-05-02T12:24:52.732Z,38.80
2019-05-02T12:25:52.648Z,39.20
2019-05-02T12:26:52.918Z,38.70
2019-05-02T12:27:52.817Z,34.90
2019-05-02T12:28:52.846Z,35.50
2019-05-02T12:29:57.683Z,37.10
2019-05-02T12:30:53.588Z,36.00
2019-05-02T12:31:56.304Z,34.40
2019-05-02T12:32:53.151Z,37.60
2019-05-02T12:33:52.557Z,35.30
2019-05-02T12:34:52.715Z,37.10
2019-05-02T12:35:52.655Z,32.00
2019-05-02T12:36:52.549Z,36.30
2019-05-02T12:37:55.203Z,33.00
2019-05-02T12:38:52.819Z,31.50
2019-05-02T12:39:52.492Z,27.90
2019-05-02T12:40:52.490Z,30.50
2019-05-02T12:41:53.676Z,29.30
2019-05-02T12:42:52.646Z,26.60
2019-05-02T12:43:52.602Z,30.10
2019-05-02T12:44:53.246Z,33.20
2019-05-02T12:45:52.979Z,32.70
2019-05-02T12:46:52.427Z,32.30
2019-05-02T12:47:52.415Z,30.50
2019-05-02T12:48:52.391Z,32.20
2019-05-02T12:49:52.381Z,31.70
2019-05-02T12:50:52.920Z,34.30
2019-05-02T12:51:52.598Z,30.70